sensor_id;sensor_type;location;lat;lon;timestamp;P1;durP1;ratioP1;P2;durP2;ratioP2
15889;SDS011;8043;49.388;12.128;2023-06-22T00:02:08;11.53;;;6.12;;
15889;SDS011;8043;49.388;12.128;2023-06-22T00:29:48;12.82;;;6.10;;
15889;SDS011;8043;49.388;12.128;2023-06-22T00:34:55;11.90;;;5.05;;
15889;SDS011;8043;49.388;12.128;2023-06-22T00:40:03;14.10;;;5.28;;
15889;SDS011;8043;49.388;12.128;2023-06-22T00:45:08;12.07;;;5.30;;
15889;SDS011;8043;49.388;12.128;2023-06-22T00:50:14;15.90;;;5.33;;
15889;SDS011;8043;49.388;12.128;2023-06-22T00:55:24;11.75;;;5.25;;
15889;SDS011;8043;49.388;12.128;2023-06-22T01:00:24;7.87;;;4.70;;
15889;SDS011;8043;49.388;12.128;2023-06-22T01:05:27;10.05;;;5.20;;
15889;SDS011;8043;49.388;12.128;2023-06-22T01:15:55;13.38;;;5.15;;
15889;SDS011;8043;49.388;12.128;2023-06-22T01:20:58;15.03;;;5.22;;
15889;SDS011;8043;49.388;12.128;2023-06-22T01:37:33;10.43;;;4.73;;
15889;SDS011;8043;49.388;12.128;2023-06-22T01:42:39;8.58;;;5.30;;
15889;SDS011;8043;49.388;12.128;2023-06-22T01:47:43;11.35;;;5.60;;
15889;SDS011;8043;49.388;12.128;2023-06-22T01:52:46;13.05;;;5.85;;
15889;SDS011;8043;49.388;12.128;2023-06-22T02:08:16;16.25;;;5.67;;
15889;SDS011;8043;49.388;12.128;2023-06-22T03:47:36;12.57;;;7.43;;
15889;SDS011;8043;49.388;12.128;2023-06-22T03:53:15;13.80;;;6.65;;
15889;SDS011;8043;49.388;12.128;2023-06-22T03:58:32;12.55;;;6.28;;
15889;SDS011;8043;49.388;12.128;2023-06-22T04:03:37;12.58;;;6.58;;
15889;SDS011;8043;49.388;12.128;2023-06-22T04:08:40;13.62;;;6.80;;
15889;SDS011;8043;49.388;12.128;2023-06-22T04:19:27;12.45;;;7.12;;
15889;SDS011;8043;49.388;12.128;2023-06-22T04:24:33;11.22;;;5.75;;
15889;SDS011;8043;49.388;12.128;2023-06-22T04:29:37;13.68;;;6.45;;
15889;SDS011;8043;49.388;12.128;2023-06-22T04:34:42;13.68;;;6.28;;
15889;SDS011;8043;49.388;12.128;2023-06-22T04:39:44;15.85;;;7.12;;
15889;SDS011;8043;49.388;12.128;2023-06-22T04:44:47;12.18;;;6.10;;
15889;SDS011;8043;49.388;12.128;2023-06-22T04:49:50;10.98;;;6.53;;
15889;SDS011;8043;49.388;12.128;2023-06-22T04:54:53;11.20;;;5.95;;
15889;SDS011;8043;49.388;12.128;2023-06-22T05:00:28;10.43;;;6.10;;
15889;SDS011;8043;49.388;12.128;2023-06-22T05:06:00;13.28;;;6.12;;
15889;SDS011;8043;49.388;12.128;2023-06-22T05:11:11;16.65;;;5.80;;
15889;SDS011;8043;49.388;12.128;2023-06-22T05:16:13;16.07;;;6.33;;
15889;SDS011;8043;49.388;12.128;2023-06-22T05:21:16;12.03;;;6.37;;
15889;SDS011;8043;49.388;12.128;2023-06-22T05:26:18;12.03;;;5.27;;
15889;SDS011;8043;49.388;12.128;2023-06-22T05:31:22;11.20;;;5.80;;
15889;SDS011;8043;49.388;12.128;2023-06-22T05:36:25;11.38;;;6.22;;
15889;SDS011;8043;49.388;12.128;2023-06-22T05:46:31;14.03;;;5.53;;
15889;SDS011;8043;49.388;12.128;2023-06-22T05:51:38;13.32;;;6.12;;
15889;SDS011;8043;49.388;12.128;2023-06-22T05:56:51;9.58;;;5.83;;
15889;SDS011;8043;49.388;12.128;2023-06-22T06:02:08;13.95;;;6.33;;
15889;SDS011;8043;49.388;12.128;2023-06-22T06:07:11;13.78;;;6.35;;
15889;SDS011;8043;49.388;12.128;2023-06-22T06:12:14;17.35;;;6.03;;
15889;SDS011;8043;49.388;12.128;2023-06-22T06:17:16;11.17;;;6.13;;
15889;SDS011;8043;49.388;12.128;2023-06-22T06:27:21;16.17;;;6.53;;
15889;SDS011;8043;49.388;12.128;2023-06-22T06:32:25;11.10;;;6.87;;
15889;SDS011;8043;49.388;12.128;2023-06-22T06:37:27;15.03;;;6.87;;
15889;SDS011;8043;49.388;12.128;2023-06-22T06:42:30;11.08;;;6.35;;
15889;SDS011;8043;49.388;12.128;2023-06-22T06:47:32;11.93;;;7.13;;
15889;SDS011;8043;49.388;12.128;2023-06-22T06:57:36;11.80;;;7.97;;
15889;SDS011;8043;49.388;12.128;2023-06-22T07:02:42;16.30;;;7.72;;
15889;SDS011;8043;49.388;12.128;2023-06-22T07:07:55;9.38;;;6.15;;
15889;SDS011;8043;49.388;12.128;2023-06-22T07:12:57;11.53;;;6.97;;
15889;SDS011;8043;49.388;12.128;2023-06-22T07:17:59;14.05;;;6.62;;
15889;SDS011;8043;49.388;12.128;2023-06-22T07:23:04;16.12;;;7.25;;
15889;SDS011;8043;49.388;12.128;2023-06-22T07:28:06;12.88;;;6.28;;
15889;SDS011;8043;49.388;12.128;2023-06-22T07:33:11;17.50;;;6.35;;
15889;SDS011;8043;49.388;12.128;2023-06-22T07:38:17;14.30;;;5.50;;
15889;SDS011;8043;49.388;12.128;2023-06-22T07:43:21;20.12;;;7.00;;
15889;SDS011;8043;49.388;12.128;2023-06-22T07:48:26;15.53;;;5.15;;
15889;SDS011;8043;49.388;12.128;2023-06-22T07:53:28;11.43;;;5.53;;
15889;SDS011;8043;49.388;12.128;2023-06-22T07:58:32;11.83;;;5.00;;
15889;SDS011;8043;49.388;12.128;2023-06-22T08:03:35;7.85;;;3.47;;
15889;SDS011;8043;49.388;12.128;2023-06-22T08:08:38;187.22;;;10.82;;
15889;SDS011;8043;49.388;12.128;2023-06-22T08:13:40;16.35;;;4.40;;
15889;SDS011;8043;49.388;12.128;2023-06-22T08:18:44;7.85;;;3.67;;
15889;SDS011;8043;49.388;12.128;2023-06-22T08:23:47;6.07;;;3.50;;
15889;SDS011;8043;49.388;12.128;2023-06-22T08:28:49;12.75;;;3.58;;
15889;SDS011;8043;49.388;12.128;2023-06-22T08:33:53;11.00;;;4.03;;
15889;SDS011;8043;49.388;12.128;2023-06-22T08:38:56;7.50;;;3.85;;
15889;SDS011;8043;49.388;12.128;2023-06-22T08:49:56;11.70;;;3.42;;
15889;SDS011;8043;49.388;12.128;2023-06-22T08:54:58;13.30;;;3.60;;
15889;SDS011;8043;49.388;12.128;2023-06-22T09:00:00;10.65;;;4.25;;
15889;SDS011;8043;49.388;12.128;2023-06-22T09:05:04;9.55;;;3.60;;
15889;SDS011;8043;49.388;12.128;2023-06-22T09:10:07;13.78;;;3.55;;
15889;SDS011;8043;49.388;12.128;2023-06-22T09:15:09;6.55;;;3.60;;
15889;SDS011;8043;49.388;12.128;2023-06-22T09:20:12;6.90;;;4.12;;
15889;SDS011;8043;49.388;12.128;2023-06-22T09:25:14;9.18;;;3.58;;
15889;SDS011;8043;49.388;12.128;2023-06-22T09:30:16;15.70;;;4.05;;
15889;SDS011;8043;49.388;12.128;2023-06-22T09:35:18;11.03;;;4.25;;
15889;SDS011;8043;49.388;12.128;2023-06-22T09:40:21;10.63;;;3.67;;
15889;SDS011;8043;49.388;12.128;2023-06-22T09:45:23;6.83;;;4.08;;
15889;SDS011;8043;49.388;12.128;2023-06-22T09:50:26;12.28;;;3.62;;
15889;SDS011;8043;49.388;12.128;2023-06-22T09:55:28;5.42;;;3.25;;
15889;SDS011;8043;49.388;12.128;2023-06-22T10:00:30;5.67;;;3.62;;
15889;SDS011;8043;49.388;12.128;2023-06-22T10:05:33;13.45;;;3.83;;
15889;SDS011;8043;49.388;12.128;2023-06-22T10:10:35;8.78;;;4.20;;
15889;SDS011;8043;49.388;12.128;2023-06-22T10:15:38;7.37;;;3.40;;
15889;SDS011;8043;49.388;12.128;2023-06-22T10:20:41;8.38;;;3.50;;
15889;SDS011;8043;49.388;12.128;2023-06-22T10:25:43;10.88;;;3.37;;
15889;SDS011;8043;49.388;12.128;2023-06-22T10:30:47;8.05;;;3.72;;
15889;SDS011;8043;49.388;12.128;2023-06-22T10:35:49;8.70;;;3.25;;
15889;SDS011;8043;49.388;12.128;2023-06-22T10:40:51;6.75;;;2.75;;
15889;SDS011;8043;49.388;12.128;2023-06-22T10:45:54;10.00;;;3.25;;
15889;SDS011;8043;49.388;12.128;2023-06-22T10:51:01;4.17;;;2.95;;
15889;SDS011;8043;49.388;12.128;2023-06-22T10:56:00;10.63;;;3.10;;
15889;SDS011;8043;49.388;12.128;2023-06-22T11:01:02;9.23;;;3.12;;
15889;SDS011;8043;49.388;12.128;2023-06-22T11:06:09;9.28;;;3.60;;
15889;SDS011;8043;49.388;12.128;2023-06-22T11:21:33;6.53;;;2.90;;
15889;SDS011;8043;49.388;12.128;2023-06-22T12:19:58;6.47;;;3.37;;
15889;SDS011;8043;49.388;12.128;2023-06-22T12:25:00;9.68;;;3.58;;
15889;SDS011;8043;49.388;12.128;2023-06-22T12:30:03;12.63;;;3.15;;
15889;SDS011;8043;49.388;12.128;2023-06-22T12:35:06;6.87;;;3.22;;
15889;SDS011;8043;49.388;12.128;2023-06-22T12:40:10;10.25;;;3.10;;
15889;SDS011;8043;49.388;12.128;2023-06-22T12:45:13;10.40;;;4.15;;
15889;SDS011;8043;49.388;12.128;2023-06-22T12:50:15;5.97;;;3.25;;
15889;SDS011;8043;49.388;12.128;2023-06-22T12:55:17;11.35;;;3.70;;
15889;SDS011;8043;49.388;12.128;2023-06-22T13:00:20;8.85;;;3.75;;
15889;SDS011;8043;49.388;12.128;2023-06-22T13:05:22;5.50;;;3.35;;
15889;SDS011;8043;49.388;12.128;2023-06-22T13:10:24;15.07;;;3.77;;
15889;SDS011;8043;49.388;12.128;2023-06-22T13:15:27;9.75;;;3.95;;
15889;SDS011;8043;49.388;12.128;2023-06-22T13:20:30;7.67;;;3.42;;
15889;SDS011;8043;49.388;12.128;2023-06-22T13:25:32;7.00;;;3.87;;
15889;SDS011;8043;49.388;12.128;2023-06-22T13:30:34;15.63;;;4.03;;
15889;SDS011;8043;49.388;12.128;2023-06-22T13:35:36;11.70;;;3.85;;
15889;SDS011;8043;49.388;12.128;2023-06-22T13:40:38;13.20;;;4.67;;
15889;SDS011;8043;49.388;12.128;2023-06-22T13:45:41;12.15;;;4.12;;
15889;SDS011;8043;49.388;12.128;2023-06-22T13:50:43;16.50;;;3.80;;
15889;SDS011;8043;49.388;12.128;2023-06-22T13:55:46;6.30;;;3.17;;
15889;SDS011;8043;49.388;12.128;2023-06-22T14:00:48;8.85;;;4.22;;
15889;SDS011;8043;49.388;12.128;2023-06-22T14:05:50;8.05;;;3.80;;
15889;SDS011;8043;49.388;12.128;2023-06-22T14:10:54;6.90;;;4.47;;
15889;SDS011;8043;49.388;12.128;2023-06-22T14:15:56;12.35;;;3.98;;
15889;SDS011;8043;49.388;12.128;2023-06-22T14:20:58;11.68;;;3.33;;
15889;SDS011;8043;49.388;12.128;2023-06-22T14:26:01;11.30;;;3.93;;
15889;SDS011;8043;49.388;12.128;2023-06-22T14:31:03;9.38;;;3.47;;
15889;SDS011;8043;49.388;12.128;2023-06-22T14:36:05;13.18;;;4.12;;
15889;SDS011;8043;49.388;12.128;2023-06-22T14:41:07;9.47;;;4.10;;
15889;SDS011;8043;49.388;12.128;2023-06-22T14:46:09;8.38;;;3.42;;
15889;SDS011;8043;49.388;12.128;2023-06-22T14:51:12;10.43;;;3.60;;
15889;SDS011;8043;49.388;12.128;2023-06-22T14:56:14;11.18;;;4.03;;
15889;SDS011;8043;49.388;12.128;2023-06-22T15:01:17;8.25;;;3.55;;
15889;SDS011;8043;49.388;12.128;2023-06-22T15:06:19;15.13;;;4.10;;
15889;SDS011;8043;49.388;12.128;2023-06-22T15:11:22;12.00;;;3.65;;
15889;SDS011;8043;49.388;12.128;2023-06-22T15:16:24;17.30;;;3.40;;
15889;SDS011;8043;49.388;12.128;2023-06-22T15:21:26;13.53;;;4.25;;
15889;SDS011;8043;49.388;12.128;2023-06-22T15:26:29;11.10;;;3.83;;
15889;SDS011;8043;49.388;12.128;2023-06-22T15:31:31;16.62;;;4.10;;
15889;SDS011;8043;49.388;12.128;2023-06-22T15:36:34;8.78;;;3.58;;
15889;SDS011;8043;49.388;12.128;2023-06-22T15:41:38;9.63;;;3.58;;
15889;SDS011;8043;49.388;12.128;2023-06-22T15:46:42;10.00;;;4.08;;
15889;SDS011;8043;49.388;12.128;2023-06-22T15:51:44;11.83;;;3.77;;
15889;SDS011;8043;49.388;12.128;2023-06-22T15:56:46;9.65;;;4.00;;
15889;SDS011;8043;49.388;12.128;2023-06-22T16:01:48;18.27;;;4.00;;
15889;SDS011;8043;49.388;12.128;2023-06-22T16:06:51;13.05;;;4.03;;
15889;SDS011;8043;49.388;12.128;2023-06-22T16:11:53;7.28;;;3.85;;
15889;SDS011;8043;49.388;12.128;2023-06-22T16:16:56;15.23;;;4.10;;
15889;SDS011;8043;49.388;12.128;2023-06-22T16:21:58;9.00;;;3.85;;
15889;SDS011;8043;49.388;12.128;2023-06-22T16:27:00;12.70;;;3.98;;
15889;SDS011;8043;49.388;12.128;2023-06-22T16:32:02;9.03;;;3.52;;
15889;SDS011;8043;49.388;12.128;2023-06-22T16:37:05;21.17;;;5.00;;
15889;SDS011;8043;49.388;12.128;2023-06-22T16:42:07;9.33;;;4.25;;
15889;SDS011;8043;49.388;12.128;2023-06-22T16:47:10;15.13;;;4.60;;
15889;SDS011;8043;49.388;12.128;2023-06-22T16:52:12;8.50;;;3.98;;
15889;SDS011;8043;49.388;12.128;2023-06-22T16:57:14;11.10;;;3.80;;
15889;SDS011;8043;49.388;12.128;2023-06-22T17:02:17;23.32;;;4.33;;
15889;SDS011;8043;49.388;12.128;2023-06-22T17:07:21;12.53;;;4.53;;
15889;SDS011;8043;49.388;12.128;2023-06-22T17:12:24;16.02;;;4.67;;
15889;SDS011;8043;49.388;12.128;2023-06-22T17:17:26;9.50;;;4.83;;
15889;SDS011;8043;49.388;12.128;2023-06-22T17:22:30;11.93;;;4.50;;
15889;SDS011;8043;49.388;12.128;2023-06-22T17:27:34;11.38;;;4.50;;
15889;SDS011;8043;49.388;12.128;2023-06-22T17:32:37;18.52;;;4.75;;
15889;SDS011;8043;49.388;12.128;2023-06-22T17:37:49;12.35;;;4.62;;
15889;SDS011;8043;49.388;12.128;2023-06-22T17:43:07;7.62;;;3.75;;
15889;SDS011;8043;49.388;12.128;2023-06-22T17:48:08;7.92;;;4.10;;
15889;SDS011;8043;49.388;12.128;2023-06-22T17:53:11;7.80;;;4.50;;
15889;SDS011;8043;49.388;12.128;2023-06-22T17:58:14;9.93;;;4.23;;
15889;SDS011;8043;49.388;12.128;2023-06-22T18:03:22;6.67;;;3.75;;
15889;SDS011;8043;49.388;12.128;2023-06-22T18:08:24;10.95;;;4.85;;
15889;SDS011;8043;49.388;12.128;2023-06-22T18:13:27;11.83;;;4.62;;
15889;SDS011;8043;49.388;12.128;2023-06-22T18:18:29;12.65;;;4.40;;
15889;SDS011;8043;49.388;12.128;2023-06-22T18:23:33;15.75;;;3.90;;
15889;SDS011;8043;49.388;12.128;2023-06-22T18:28:36;7.75;;;4.90;;
15889;SDS011;8043;49.388;12.128;2023-06-22T18:33:39;11.08;;;4.30;;
15889;SDS011;8043;49.388;12.128;2023-06-22T18:38:42;11.88;;;5.10;;
15889;SDS011;8043;49.388;12.128;2023-06-22T18:43:44;6.53;;;4.25;;
15889;SDS011;8043;49.388;12.128;2023-06-22T18:48:47;10.05;;;4.30;;
15889;SDS011;8043;49.388;12.128;2023-06-22T18:54:01;11.57;;;4.60;;
15889;SDS011;8043;49.388;12.128;2023-06-22T18:58:57;15.65;;;4.53;;
15889;SDS011;8043;49.388;12.128;2023-06-22T19:03:59;14.97;;;4.27;;
15889;SDS011;8043;49.388;12.128;2023-06-22T19:09:14;20.40;;;4.22;;
15889;SDS011;8043;49.388;12.128;2023-06-22T19:14:19;11.73;;;4.45;;
15889;SDS011;8043;49.388;12.128;2023-06-22T19:19:21;18.12;;;3.92;;
15889;SDS011;8043;49.388;12.128;2023-06-22T19:24:29;16.75;;;3.92;;
15889;SDS011;8043;49.388;12.128;2023-06-22T19:29:31;19.45;;;5.08;;
15889;SDS011;8043;49.388;12.128;2023-06-22T19:34:34;11.38;;;3.98;;
15889;SDS011;8043;49.388;12.128;2023-06-22T19:39:38;13.98;;;4.62;;
15889;SDS011;8043;49.388;12.128;2023-06-22T19:49:42;16.32;;;4.45;;
15889;SDS011;8043;49.388;12.128;2023-06-22T19:54:44;15.25;;;5.17;;
15889;SDS011;8043;49.388;12.128;2023-06-22T19:59:46;15.98;;;5.55;;
15889;SDS011;8043;49.388;12.128;2023-06-22T20:04:50;20.68;;;4.85;;
15889;SDS011;8043;49.388;12.128;2023-06-22T20:15:20;16.32;;;4.87;;
15889;SDS011;8043;49.388;12.128;2023-06-22T20:20:29;11.83;;;4.55;;
15889;SDS011;8043;49.388;12.128;2023-06-22T20:25:35;22.55;;;6.53;;
15889;SDS011;8043;49.388;12.128;2023-06-22T20:30:38;18.35;;;4.58;;
15889;SDS011;8043;49.388;12.128;2023-06-22T20:35:42;12.65;;;4.87;;
15889;SDS011;8043;49.388;12.128;2023-06-22T20:45:46;17.20;;;4.77;;
15889;SDS011;8043;49.388;12.128;2023-06-22T20:50:48;22.80;;;3.50;;
15889;SDS011;8043;49.388;12.128;2023-06-22T20:55:51;12.25;;;3.10;;
15889;SDS011;8043;49.388;12.128;2023-06-22T21:05:55;10.82;;;2.58;;
15889;SDS011;8043;49.388;12.128;2023-06-22T21:10:57;6.65;;;2.77;;
15889;SDS011;8043;49.388;12.128;2023-06-22T21:16:00;11.30;;;3.70;;
15889;SDS011;8043;49.388;12.128;2023-06-22T21:21:02;8.90;;;3.08;;
15889;SDS011;8043;49.388;12.128;2023-06-22T21:26:04;22.77;;;3.30;;
15889;SDS011;8043;49.388;12.128;2023-06-22T21:31:06;21.73;;;3.40;;
15889;SDS011;8043;49.388;12.128;2023-06-22T21:36:08;16.45;;;3.17;;
15889;SDS011;8043;49.388;12.128;2023-06-22T21:46:12;9.65;;;2.67;;
15889;SDS011;8043;49.388;12.128;2023-06-22T21:51:14;6.60;;;2.90;;
15889;SDS011;8043;49.388;12.128;2023-06-22T21:56:16;10.40;;;2.80;;
15889;SDS011;8043;49.388;12.128;2023-06-22T22:01:19;11.85;;;3.55;;
15889;SDS011;8043;49.388;12.128;2023-06-22T22:06:21;12.55;;;3.25;;
15889;SDS011;8043;49.388;12.128;2023-06-22T22:11:23;20.40;;;3.62;;
15889;SDS011;8043;49.388;12.128;2023-06-22T22:26:30;8.23;;;2.85;;
15889;SDS011;8043;49.388;12.128;2023-06-22T22:31:34;12.95;;;3.52;;
15889;SDS011;8043;49.388;12.128;2023-06-22T22:36:39;13.10;;;3.37;;
15889;SDS011;8043;49.388;12.128;2023-06-22T22:41:42;10.70;;;3.72;;
15889;SDS011;8043;49.388;12.128;2023-06-22T22:46:44;12.53;;;3.27;;
15889;SDS011;8043;49.388;12.128;2023-06-22T22:51:46;11.60;;;3.73;;
15889;SDS011;8043;49.388;12.128;2023-06-22T22:56:49;16.52;;;3.62;;
15889;SDS011;8043;49.388;12.128;2023-06-22T23:01:51;11.05;;;3.52;;
15889;SDS011;8043;49.388;12.128;2023-06-22T23:06:53;15.68;;;3.33;;
15889;SDS011;8043;49.388;12.128;2023-06-22T23:11:56;11.95;;;3.30;;
15889;SDS011;8043;49.388;12.128;2023-06-22T23:22:00;11.03;;;3.02;;
15889;SDS011;8043;49.388;12.128;2023-06-22T23:27:03;6.85;;;3.08;;
15889;SDS011;8043;49.388;12.128;2023-06-22T23:32:07;7.60;;;3.77;;
15889;SDS011;8043;49.388;12.128;2023-06-22T23:37:10;9.93;;;3.95;;
15889;SDS011;8043;49.388;12.128;2023-06-22T23:42:12;9.58;;;3.92;;
15889;SDS011;8043;49.388;12.128;2023-06-22T23:47:14;15.93;;;3.98;;
15889;SDS011;8043;49.388;12.128;2023-06-22T23:52:16;12.97;;;5.47;;
15889;SDS011;8043;49.388;12.128;2023-06-22T23:57:18;30.68;;;4.92;;
